createdAt,value
2023-11-10T00:00:13.620Z,100110.38
2023-11-10T00:02:44.000Z,100111.92
2023-11-10T00:05:11.409Z,100117.66
2023-11-10T00:07:39.796Z,100117.45
2023-11-10T00:10:08.835Z,100124.81
2023-11-10T00:12:36.369Z,100128.83
2023-11-10T00:15:03.844Z,100127.80
2023-11-10T00:17:31.111Z,100131.41
2023-11-10T00:19:59.319Z,100134.44
2023-11-10T00:22:26.334Z,100136.75
2023-11-10T00:24:54.483Z,100141.89
2023-11-10T00:27:21.978Z,100144.77
2023-11-10T00:29:49.191Z,100137.52
2023-11-10T00:32:16.509Z,100145.27
2023-11-10T00:34:43.595Z,100141.70
2023-11-10T00:37:10.757Z,100145.31
2023-11-10T00:39:37.915Z,100147.46
2023-11-10T00:42:05.252Z,100156.36
2023-11-10T00:44:32.364Z,100161.59
2023-11-10T00:47:00.898Z,100158.94
2023-11-10T00:49:28.128Z,100165.49
2023-11-10T00:51:55.132Z,100169.41
2023-11-10T00:54:22.211Z,100170.21
2023-11-10T00:56:49.232Z,100174.76
2023-11-10T00:59:16.238Z,100176.84
2023-11-10T01:01:44.235Z,100179.21
2023-11-10T01:04:11.720Z,100182.30
2023-11-10T01:06:39.337Z,100180.50
2023-11-10T01:09:06.527Z,100182.51
2023-11-10T01:11:34.026Z,100183.31
2023-11-10T01:14:01.220Z,100180.84
2023-11-10T01:16:30.433Z,100182.30
2023-11-10T01:18:57.686Z,100179.83
2023-11-10T01:21:24.833Z,100179.55
2023-11-10T01:23:53.837Z,100183.80
2023-11-10T01:26:21.254Z,100184.38
2023-11-10T01:28:48.653Z,100191.56
2023-11-10T01:31:17.113Z,100195.89
2023-11-10T01:33:45.113Z,100201.91
2023-11-10T01:36:12.811Z,100205.27
2023-11-10T01:38:41.635Z,100208.15
2023-11-10T01:41:10.526Z,100204.27
2023-11-10T01:43:37.607Z,100202.44
2023-11-10T01:46:05.590Z,100206.08
2023-11-10T01:48:32.668Z,100213.14
2023-11-10T01:50:59.770Z,100213.61
2023-11-10T01:53:27.101Z,100220.33
2023-11-10T01:55:54.068Z,100223.88
2023-11-10T01:58:21.029Z,100226.55
2023-11-10T02:00:50.546Z,100230.06
2023-11-10T02:03:18.018Z,100238.34
2023-11-10T02:05:45.117Z,100241.06
2023-11-10T02:08:12.695Z,100243.34
2023-11-10T02:10:40.525Z,100243.95
2023-11-10T02:13:07.620Z,100243.69
2023-11-10T02:15:35.367Z,100245.77
2023-11-10T02:18:02.602Z,100248.52
2023-11-10T02:20:30.005Z,100250.51
2023-11-10T02:22:57.077Z,100253.15
2023-11-10T02:25:24.225Z,100263.05
2023-11-10T02:27:53.979Z,100268.52
2023-11-10T02:30:21.101Z,100276.30
2023-11-10T02:32:48.587Z,100279.33
2023-11-10T02:35:16.535Z,100277.15
2023-11-10T02:37:43.726Z,100289.61
2023-11-10T02:40:11.456Z,100291.70
2023-11-10T02:42:39.754Z,100296.46
2023-11-10T02:45:07.484Z,100301.02
2023-11-10T02:47:35.364Z,100300.36
2023-11-10T02:50:02.616Z,100298.51
2023-11-10T02:52:29.740Z,100297.06
2023-11-10T02:54:56.809Z,100296.83
2023-11-10T02:57:24.651Z,100297.62
2023-11-10T02:59:51.956Z,100304.79
2023-11-10T03:02:19.503Z,100303.73
2023-11-10T03:04:46.871Z,100306.14
2023-11-10T03:07:14.348Z,100305.98
2023-11-10T03:09:42.351Z,100305.60
2023-11-10T03:12:10.363Z,100305.92
2023-11-10T03:14:38.211Z,100303.09
2023-11-10T03:17:06.655Z,100307.71
2023-11-10T03:19:33.767Z,100309.16
2023-11-10T03:22:00.844Z,100309.67
2023-11-10T03:24:27.943Z,100311.58
2023-11-10T03:26:55.674Z,100311.70
2023-11-10T03:29:22.796Z,100314.30
2023-11-10T03:31:50.014Z,100314.06
2023-11-10T03:34:17.718Z,100317.04
2023-11-10T03:36:45.295Z,100316.08
2023-11-10T03:39:12.529Z,100326.83
2023-11-10T03:41:39.697Z,100339.54
2023-11-10T03:44:07.948Z,100347.04
2023-11-10T03:46:35.086Z,100349.96
2023-11-10T03:49:02.187Z,100344.17
2023-11-10T03:51:29.469Z,100342.76
2023-11-10T03:53:56.567Z,100343.75
2023-11-10T03:56:23.934Z,100342.67
2023-11-10T03:58:50.960Z,100342.91
2023-11-10T04:03:39.834Z,100348.31
2023-11-10T04:12:56.890Z,100357.46
2023-11-10T04:15:24.231Z,100361.34
2023-11-10T04:17:51.495Z,100366.46
2023-11-10T04:20:18.891Z,100364.64
2023-11-10T04:22:46.435Z,100360.36
2023-11-10T04:25:14.184Z,100366.59
2023-11-10T04:27:42.970Z,100371.02
2023-11-10T04:30:11.888Z,100375.65
2023-11-10T04:32:47.688Z,100373.41
2023-11-10T04:35:17.759Z,100380.83
2023-11-10T04:37:44.923Z,100386.77
2023-11-10T04:40:12.661Z,100388.48
2023-11-10T04:42:43.152Z,100396.59
2023-11-10T04:45:13.909Z,100401.19
2023-11-10T04:47:41.940Z,100395.97
2023-11-10T04:50:10.114Z,100400.89
2023-11-10T04:52:37.813Z,100402.58
2023-11-10T04:55:05.489Z,100409.15
2023-11-10T04:57:32.881Z,100414.87
2023-11-10T05:00:02.401Z,100416.20
2023-11-10T05:02:29.927Z,100415.92
2023-11-10T05:05:00.390Z,100426.02
2023-11-10T05:07:28.728Z,100426.35
2023-11-10T05:09:56.295Z,100424.98
2023-11-10T05:12:24.378Z,100427.89
2023-11-10T05:14:51.909Z,100431.54
2023-11-10T05:17:19.168Z,100437.27
2023-11-10T05:19:46.324Z,100442.28
2023-11-10T05:22:14.733Z,100450.70
2023-11-10T05:24:44.945Z,100460.95
2023-11-10T05:27:12.165Z,100464.27
2023-11-10T05:29:39.508Z,100466.98
2023-11-10T05:32:07.173Z,100469.17
2023-11-10T05:34:34.415Z,100472.85
2023-11-10T05:37:02.874Z,100475.13
2023-11-10T05:39:30.513Z,100475.08
2023-11-10T05:41:58.216Z,100480.16
2023-11-10T05:44:26.503Z,100480.20
2023-11-10T05:46:53.985Z,100484.00
2023-11-10T05:49:21.365Z,100490.84
2023-11-10T05:51:49.913Z,100491.89
2023-11-10T05:54:19.233Z,100495.75
2023-11-10T05:56:47.664Z,100503.29
2023-11-10T05:59:15.271Z,100506.46
2023-11-10T06:01:42.786Z,100507.61
2023-11-10T06:04:19.588Z,100510.84
2023-11-10T06:06:53.907Z,100515.21
2023-11-10T06:09:23.574Z,100517.77
2023-11-10T06:11:56.095Z,100521.42
2023-11-10T06:14:23.863Z,100520.17
2023-11-10T06:16:51.146Z,100527.60
2023-11-10T06:19:18.783Z,100529.34
2023-11-10T06:21:46.263Z,100527.84
2023-11-10T06:24:13.369Z,100528.30
2023-11-10T06:26:40.654Z,100527.58
2023-11-10T06:29:07.998Z,100528.94
2023-11-10T06:31:35.316Z,100526.42
2023-11-10T06:34:03.487Z,100523.00
2023-11-10T06:36:31.097Z,100527.41
2023-11-10T06:38:58.343Z,100527.20
2023-11-10T06:41:25.554Z,100531.50
2023-11-10T06:43:53.012Z,100530.39
2023-11-10T06:46:29.246Z,100532.80
2023-11-10T06:48:57.411Z,100536.36
2023-11-10T06:51:25.290Z,100538.30
2023-11-10T06:53:52.599Z,100540.85
2023-11-10T06:56:20.222Z,100538.06
2023-11-10T06:58:47.901Z,100541.78
2023-11-10T07:01:15.041Z,100543.03
2023-11-10T07:03:42.821Z,100542.42
2023-11-10T07:06:10.470Z,100544.98
2023-11-10T07:08:40.238Z,100547.45
2023-11-10T07:11:09.144Z,100549.32
2023-11-10T07:13:38.469Z,100553.13
2023-11-10T07:16:07.926Z,100553.84
2023-11-10T07:18:35.481Z,100551.90
2023-11-10T07:21:02.948Z,100549.52
2023-11-10T07:23:30.477Z,100549.09
2023-11-10T07:25:57.759Z,100550.57
2023-11-10T07:28:25.449Z,100556.48
2023-11-10T07:30:53.191Z,100557.11
2023-11-10T07:33:20.508Z,100563.73
2023-11-10T07:35:48.254Z,100566.13
2023-11-10T07:38:15.522Z,100565.80
2023-11-10T07:40:43.104Z,100565.30
2023-11-10T07:43:11.726Z,100567.35
2023-11-10T07:45:41.144Z,100572.30
2023-11-10T07:48:09.856Z,100573.96
2023-11-10T07:50:37.321Z,100573.81
2023-11-10T07:53:04.638Z,100580.48
2023-11-10T07:55:31.845Z,100588.42
2023-11-10T07:57:59.158Z,100586.94
2023-11-10T08:00:26.516Z,100589.38
2023-11-10T08:02:55.332Z,100590.05
2023-11-10T08:05:23.645Z,100590.90
2023-11-10T08:14:29.359Z,100592.20
2023-11-10T08:16:56.779Z,100597.89
2023-11-10T08:19:23.884Z,100603.16
2023-11-10T08:21:51.539Z,100598.98
2023-11-10T08:24:19.203Z,100600.15
2023-11-10T08:26:46.475Z,100603.38
2023-11-10T08:29:14.729Z,100607.19
2023-11-10T08:31:43.035Z,100602.10
2023-11-10T08:34:10.681Z,100607.58
2023-11-10T08:36:40.113Z,100609.95
2023-11-10T08:39:08.143Z,100606.39
2023-11-10T08:41:35.477Z,100607.02
2023-11-10T08:44:05.683Z,100607.47
2023-11-10T08:46:34.738Z,100606.68
2023-11-10T08:49:02.374Z,100608.27
2023-11-10T08:51:29.945Z,100607.88
2023-11-10T08:53:58.684Z,100608.34
2023-11-10T08:56:26.874Z,100606.31
2023-11-10T08:58:54.743Z,100608.11
2023-11-10T09:01:22.481Z,100607.77
2023-11-10T09:10:50.544Z,100606.86
2023-11-10T09:13:17.999Z,100605.73
2023-11-10T09:15:51.561Z,100605.92
2023-11-10T09:18:24.682Z,100609.86
2023-11-10T09:20:52.006Z,100611.34
2023-11-10T09:23:19.237Z,100616.73
2023-11-10T09:25:46.509Z,100619.13
2023-11-10T09:28:13.835Z,100625.60
2023-11-10T09:30:41.044Z,100615.48
2023-11-10T09:33:08.211Z,100615.17
2023-11-10T09:35:37.424Z,100611.20
2023-11-10T09:38:05.108Z,100611.41
2023-11-10T09:40:32.435Z,100609.86
2023-11-10T09:43:00.542Z,100606.11
2023-11-10T09:45:28.211Z,100601.52
2023-11-10T09:47:56.003Z,100598.42
2023-11-10T09:50:24.488Z,100593.75
2023-11-10T09:52:52.164Z,100598.13
2023-11-10T09:55:19.810Z,100603.38
2023-11-10T09:57:51.112Z,100605.15
2023-11-10T10:00:20.157Z,100606.44
2023-11-10T10:02:47.367Z,100607.73
2023-11-10T10:05:14.888Z,100601.65
2023-11-10T10:07:42.017Z,100608.58
2023-11-10T10:10:12.653Z,100608.14
2023-11-10T10:12:41.095Z,100614.18
2023-11-10T10:15:09.561Z,100612.48
2023-11-10T10:17:40.149Z,100612.84
2023-11-10T10:20:11.652Z,100609.77
2023-11-10T10:22:49.794Z,100614.09
2023-11-10T10:25:18.578Z,100606.71
2023-11-10T10:27:48.421Z,100606.92
2023-11-10T10:30:16.441Z,100601.34
2023-11-10T10:32:43.846Z,100599.42
2023-11-10T10:35:13.388Z,100601.63
2023-11-10T10:37:41.913Z,100596.33
2023-11-10T10:40:15.359Z,100599.02
2023-11-10T10:42:44.214Z,100597.35
2023-11-10T10:45:14.533Z,100592.18
2023-11-10T10:47:42.422Z,100588.44
2023-11-10T10:50:11.885Z,100585.14
2023-11-10T10:52:39.069Z,100588.20
2023-11-10T10:55:07.704Z,100586.29
2023-11-10T10:57:35.548Z,100590.80
2023-11-10T11:00:07.335Z,100596.11
2023-11-10T11:02:35.947Z,100593.66
2023-11-10T11:05:29.603Z,100594.57
2023-11-10T11:08:06.051Z,100599.69
2023-11-10T11:10:55.843Z,100592.76
2023-11-10T11:13:42.812Z,100595.74
2023-11-10T11:16:25.603Z,100602.06
2023-11-10T11:19:12.065Z,100593.02
2023-11-10T11:21:40.236Z,100598.13
2023-11-10T11:24:11.213Z,100596.48
2023-11-10T11:26:38.325Z,100594.60
2023-11-10T11:29:11.032Z,100595.67
2023-11-10T11:31:46.399Z,100597.54
2023-11-10T11:34:15.562Z,100597.90
2023-11-10T11:36:47.360Z,100597.95
2023-11-10T11:39:17.602Z,100605.59
2023-11-10T11:41:51.859Z,100606.36
2023-11-10T11:44:33.828Z,100610.21
2023-11-10T11:47:13.201Z,100611.23
2023-11-10T11:49:43.626Z,100610.86
2023-11-10T11:52:12.813Z,100614.77
2023-11-10T11:54:41.278Z,100609.98
2023-11-10T11:57:08.716Z,100601.30
2023-11-10T11:59:37.563Z,100602.93
2023-11-10T12:02:07.955Z,100612.70
2023-11-10T12:04:35.564Z,100613.71
2023-11-10T16:20:59.805Z,100577.04
2023-11-10T16:23:27.046Z,100574.16
2023-11-10T16:25:54.482Z,100575.80
2023-11-10T16:28:21.939Z,100576.13
2023-11-10T16:30:49.653Z,100579.17
2023-11-10T16:33:18.563Z,100583.77
2023-11-10T16:35:46.185Z,100585.27
2023-11-10T16:38:14.836Z,100579.91
2023-11-10T16:40:44.743Z,100569.59
2023-11-10T16:43:12.261Z,100566.10
2023-11-10T16:45:40.586Z,100564.34
2023-11-10T16:48:09.489Z,100561.39
2023-11-10T16:50:37.252Z,100568.48
2023-11-10T16:53:06.046Z,100571.88
2023-11-10T17:02:07.608Z,100577.61
2023-11-10T17:04:35.776Z,100578.55
2023-11-10T17:07:03.310Z,100578.35
2023-11-10T17:09:31.486Z,100586.61
2023-11-10T17:11:59.485Z,100591.20
2023-11-10T17:14:27.694Z,100592.69
2023-11-10T17:16:56.107Z,100589.63
2023-11-10T17:19:23.914Z,100590.23
2023-11-10T17:21:53.908Z,100586.95
2023-11-10T17:24:22.086Z,100586.10
2023-11-10T17:26:51.205Z,100581.80
2023-11-10T17:29:18.445Z,100580.71
2023-11-10T17:31:46.235Z,100579.95
2023-11-10T17:34:13.400Z,100578.25
2023-11-10T17:36:40.764Z,100577.56
2023-11-10T17:39:08.278Z,100575.16
2023-11-10T17:41:35.726Z,100566.82
2023-11-10T17:44:03.140Z,100568.23
2023-11-10T17:46:30.879Z,100566.28
2023-11-10T17:48:58.665Z,100570.41
2023-11-10T17:51:26.092Z,100568.31
2023-11-10T17:53:53.676Z,100570.67
2023-11-10T17:56:20.967Z,100575.81
2023-11-10T17:58:49.539Z,100575.02
2023-11-10T18:01:17.162Z,100580.61
2023-11-10T18:03:45.435Z,100584.64
2023-11-10T18:06:13.002Z,100586.39
2023-11-10T18:08:43.280Z,100588.83
2023-11-10T18:11:10.827Z,100591.30
2023-11-10T18:13:39.452Z,100586.27
2023-11-10T18:16:07.294Z,100580.71
2023-11-10T18:18:34.756Z,100583.24
2023-11-10T18:21:01.760Z,100581.63
2023-11-10T18:23:31.558Z,100582.78
2023-11-10T18:25:58.667Z,100585.09
2023-11-10T18:28:25.953Z,100584.41
2023-11-10T18:30:54.431Z,100581.13
2023-11-10T18:33:22.094Z,100584.94
2023-11-10T18:35:49.357Z,100586.55
2023-11-10T18:38:16.763Z,100586.15
2023-11-10T18:40:45.857Z,100585.13
2023-11-10T18:43:13.480Z,100582.42
2023-11-10T18:45:41.245Z,100579.98
2023-11-10T18:48:09.623Z,100578.87
2023-11-10T18:50:38.051Z,100578.70
2023-11-10T18:53:25.190Z,100576.17
2023-11-10T18:55:52.858Z,100574.72
2023-11-10T18:58:24.255Z,100573.55
2023-11-10T19:00:51.734Z,100581.92
2023-11-10T19:03:19.420Z,100581.20
2023-11-10T19:05:46.855Z,100582.98
2023-11-10T19:08:14.301Z,100584.10
2023-11-10T19:10:41.658Z,100584.06
2023-11-10T19:13:09.149Z,100591.14
2023-11-10T19:15:36.899Z,100593.23
2023-11-10T19:18:04.737Z,100596.07
2023-11-10T19:20:32.135Z,100602.61
2023-11-10T19:23:01.298Z,100603.54
2023-11-10T19:25:31.024Z,100604.10
2023-11-10T19:27:58.526Z,100605.89
2023-11-10T19:30:26.357Z,100603.21
2023-11-10T19:32:53.745Z,100599.34
2023-11-10T19:35:21.570Z,100599.02
2023-11-10T19:37:49.945Z,100603.05
2023-11-10T19:40:17.672Z,100597.21
2023-11-10T19:42:45.803Z,100597.73
2023-11-10T19:45:14.069Z,100595.54
2023-11-10T19:55:07.477Z,100593.16
2023-11-10T19:57:36.298Z,100602.85
2023-11-10T20:02:45.661Z,100601.23
2023-11-10T20:05:14.949Z,100602.52
2023-11-10T20:07:42.465Z,100599.80
2023-11-10T20:10:10.936Z,100601.98
2023-11-10T20:12:38.564Z,100603.35
2023-11-10T20:15:07.961Z,100608.38
2023-11-10T20:17:37.105Z,100612.35
2023-11-10T20:20:05.366Z,100608.42
2023-11-10T20:22:33.167Z,100604.38
2023-11-10T20:25:00.445Z,100604.00
2023-11-10T20:27:27.780Z,100602.87
2023-11-10T20:29:56.161Z,100600.87
2023-11-10T20:32:27.762Z,100593.86
2023-11-10T20:34:55.541Z,100598.19
2023-11-10T20:37:22.897Z,100594.43
2023-11-10T20:39:50.893Z,100598.08
2023-11-10T20:42:38.705Z,100599.39
2023-11-10T20:45:07.594Z,100601.61
2023-11-10T20:47:35.679Z,100601.13
2023-11-10T20:50:03.322Z,100595.83
2023-11-10T20:52:30.584Z,100592.63
2023-11-10T20:54:57.805Z,100587.11
2023-11-10T20:57:25.774Z,100590.20
2023-11-10T20:59:53.463Z,100590.59
2023-11-10T21:02:21.151Z,100590.06
2023-11-10T21:04:52.027Z,100593.02
2023-11-10T21:07:19.941Z,100589.54
2023-11-10T21:09:47.282Z,100589.00
2023-11-10T21:12:14.807Z,100587.75
2023-11-10T21:14:42.471Z,100587.70
2023-11-10T21:17:11.841Z,100582.08
2023-11-10T21:19:40.763Z,100579.67
2023-11-10T21:22:07.978Z,100580.16
2023-11-10T21:24:36.262Z,100574.80
2023-11-10T21:27:03.745Z,100574.07
2023-11-10T21:29:31.889Z,100570.08
2023-11-10T21:39:38.803Z,100563.57
2023-11-10T21:42:06.972Z,100564.13
2023-11-10T21:44:35.031Z,100562.53
2023-11-10T21:47:02.883Z,100562.23
2023-11-10T21:49:30.965Z,100557.05
2023-11-10T21:51:57.957Z,100551.19
2023-11-10T21:54:26.602Z,100553.30
2023-11-10T21:56:54.497Z,100548.35
2023-11-10T21:59:22.331Z,100546.15
2023-11-10T22:01:49.357Z,100546.33
2023-11-10T22:04:16.462Z,100539.52
2023-11-10T22:06:44.239Z,100532.48
2023-11-10T22:09:12.901Z,100527.88
2023-11-10T22:11:40.359Z,100520.70
2023-11-10T22:14:08.532Z,100518.38
2023-11-10T22:16:36.001Z,100519.70
2023-11-10T22:19:03.748Z,100517.98
2023-11-10T22:21:31.576Z,100521.33
2023-11-10T22:23:59.148Z,100517.69
2023-11-10T22:26:27.251Z,100516.04
2023-11-10T22:28:54.907Z,100512.87
2023-11-10T22:31:22.297Z,100508.16
2023-11-10T22:33:50.087Z,100506.95
2023-11-10T22:36:17.702Z,100504.92
2023-11-10T22:38:45.593Z,100496.73
2023-11-10T22:41:12.806Z,100502.75
2023-11-10T22:43:41.032Z,100499.92
2023-11-10T22:46:09.397Z,100495.48
2023-11-10T22:48:36.916Z,100497.61
2023-11-10T22:51:04.732Z,100496.17
2023-11-10T22:53:32.567Z,100493.75
2023-11-10T22:56:00.053Z,100486.33
2023-11-10T22:58:27.975Z,100482.89
2023-11-10T23:00:55.870Z,100477.67
2023-11-10T23:03:23.647Z,100481.49
2023-11-10T23:05:50.985Z,100483.13
2023-11-10T23:08:19.302Z,100480.15
2023-11-10T23:10:46.687Z,100470.27
2023-11-10T23:13:14.719Z,100470.11
2023-11-10T23:15:42.112Z,100467.42
2023-11-10T23:18:11.724Z,100464.67
2023-11-10T23:20:39.903Z,100456.18
2023-11-10T23:23:07.925Z,100450.69
2023-11-10T23:25:38.884Z,100445.94
2023-11-10T23:28:06.429Z,100450.59
2023-11-10T23:30:35.614Z,100443.20
2023-11-10T23:33:03.305Z,100439.88
2023-11-10T23:35:31.726Z,100434.67
2023-11-10T23:37:59.026Z,100439.42
2023-11-10T23:40:27.047Z,100437.81
2023-11-10T23:42:55.358Z,100437.73
2023-11-10T23:45:23.412Z,100437.20
2023-11-10T23:47:51.916Z,100436.31
2023-11-10T23:50:19.231Z,100437.27
2023-11-10T23:52:47.453Z,100441.84
2023-11-10T23:55:14.766Z,100435.27
2023-11-10T23:57:42.012Z,100436.14
